Air Sicilia Virtual Airways - Route

Air Sicilia Virtual Airways - SIC080D

( IT ) LICJ - 12:00
Falcone–Borsellino Airport
PALERMO ( PMO )
plane_to ( IT ) LIML - 13:55
Linate Airport
MILAN ( LIN )

AIRPORT NEAR NAVIGATION AIDS

Type Name Frequency
VOR-DME Palermo 112300 KHZ
NDB Palermo 356 KHZ
VOR-DME Raisi 113000 KHZ
NDB Raisi 329 KHZ

METAR / TAF
LICJ 180350Z 07006KT CAVOK 25/19 Q1014

RUNWAY INFORMATION

Runway Runway length Runway width Runway elevation Runway displaced threshold Runway heading
02 6804 148 42 10 24
20 6804 148 22 10 204
07 10912 197 33 404 66.9
25 10912 197 50 679 246.9

AIRPORT FREQUENCIES

Type Name Frequency
APP APP 120.2 MHZ
GND RAISI GND 121.625 MHZ
TWR RAISI TWR 119.05 MHZ

AIRPORT NEAR NAVIGATION AIDS

Type Name Frequency
VOR-DME Linate 112250 KHZ
NDB Linate 386 KHZ

METAR / TAF
LIML 180350Z VRB01KT CAVOK 20/18 Q1016 NOSIG

RUNWAY INFORMATION

Runway Runway length Runway width Runway elevation Runway displaced threshold Runway heading
18L 8005 197 353 0 176
36R 8005 197 337 0 356
18R 1972 72 353 0 176
36L 1972 72 349 0 356

AIRPORT FREQUENCIES

Type Name Frequency
APP MILANO APP 132.7 MHZ
ATIS ATIS 135.55 MHZ
DEP MILANO DEP 126.75 MHZ
GND GND 121.8 MHZ
TWR TWR 118.1 MHZ

Flightplan

GIANO L12 ELB M729 IDONA

Air Sicilia Virtual Airways Fleets

AVAILABLE AIRCRAFTS for route at this time in Falcone–Borsellino Airport
A320 - Airbus A320
( UE ) AIRBUS

Aircraft in fleet: 4

B738 - Boeing 737-800 NGX
( US ) BOEING

Aircraft in fleet: 2

DH8D - Dash 8 Q400
( CA ) BOMABRDIER

Aircraft in fleet: 1

469.01 NM

Distance in nautical miles.

€ 80,00

Ticket price for this flight.

1.31 h.

Estimated flight time.



07-08-2018
Aerosoft Professional Flight Planner PFPX

PFPX - Professional Flight Planner X - è un nuovo ed innovativo strumento di pianificazione del volo sviluppato da piloti e dispatcher del mondo reale. È un'aggiunta preziosa e realistica alla tua esperienza di simulaz ....


19-07-2018
Aerosoft Oslo X

L'Aeroporto di Oslo-Gardermoen (IATA: OSL, ICAO: ENGM) è il principale aeroporto norvegese e il 19° in Europa, è situato vicino alla cittadina di Ullensaker nella contea di Akershus e serve la capitale Oslo. Ha sostit ....


21-06-2018
Aerosoft Malpensa Professional P3Dv4

L'Aeroporto di Milano-Malpensa (IATA: MXP, ICAO: LIMC) è un aeroporto italiano situato nella provincia di Varese in Lombardia, ma considerato come il principale aeroporto di Milano.

È il secondo aeroporto ital ....


06-06-2018
1° Raduno Air Sicilia Virtual - parla il C.E.O.

Grande successo per il 1° Raduno di Compagnia dell'Air Sicilia Virtual, che ha visto i membri della Crew presenti il 4 giugno 2018 a Thiene ( VI ) , cimentarsi dal vivo con le reali ....


24-05-2018
Aerosoft Airport Rome XP

Tra le nostre recensioni non poteva mancare certo la nuova uscita Aerosoft per X-Plane, stiamo parlando di Airport Rome XP, finalmente un Add-on pay completo dell'Aeroporto di Roma Fiumicino per gli utilizzatori del simu ....